Wetterdaten: Woche 25.05.15 - 31.05.15 (KW22)
Datum Zeit Temp. A. Feuchte A. Luftdruck Regen Wind Richtung Sonnenschein ET UV Solar Taupunkt Windchill Windben Empfang
25.05.2015 00:00 10,3 C 97 % 1017,3 hPa 0,0 l/m 0,0 km/h (0 Bft) N 0,00 h 0,000 mm 0,0 UV-I 0 W/m 9,9 C 10,3 C 0,0 km/h (0 Bft) 0,00 %
25.05.2015 01:00 10,3 C 97 % 1017,4 hPa 0,0 l/m 0,0 km/h (0 Bft) N 0,00 h 0,000 mm 0,0 UV-I 0 W/m 9,8 C 10,3 C 0,0 km/h (0 Bft) 0,00 %
25.05.2015 02:00 10,2 C 97 % 1017,0 hPa 0,0 l/m 0,0 km/h (0 Bft) N 0,00 h 0,000 mm 0,0 UV-I 0 W/m 9,7 C 10,2 C 0,0 km/h (0 Bft) 0,00 %
25.05.2015 03:00 10,1 C 97 % 1016,7 hPa 0,0 l/m 0,0 km/h (0 Bft) N 0,00 h 0,000 mm 0,0 UV-I 0 W/m 9,6 C 10,1 C 0,0 km/h (0 Bft) 0,00 %
25.05.2015 04:00 9,9 C 97 % 1016,4 hPa 0,0 l/m 0,0 km/h (0 Bft) N 0,00 h 0,000 mm 0,0 UV-I 0 W/m 9,4 C 9,9 C 0,0 km/h (0 Bft) 0,00 %
25.05.2015 05:00 9,8 C 97 % 1016,1 hPa 0,0 l/m 0,0 km/h (0 Bft) N 0,00 h 0,000 mm 0,0 UV-I 2 W/m 9,2 C 9,8 C 0,0 km/h (0 Bft) 0,00 %
25.05.2015 06:00 10,2 C 96 % 1016,1 hPa 0,0 l/m 0,0 km/h (0 Bft) N 0,00 h 0,000 mm 1,0 UV-I 54 W/m 9,6 C 10,2 C 0,0 km/h (0 Bft) 0,00 %
25.05.2015 07:00 11,3 C 90 % 1015,9 hPa 0,0 l/m 0,0 km/h (0 Bft) W-SW 0,00 h 0,000 mm 1,0 UV-I 117 W/m 9,7 C 11,3 C 0,0 km/h (0 Bft) 0,00 %
25.05.2015 08:00 13,0 C 83 % 1015,5 hPa 0,0 l/m 0,8 km/h (0 Bft) N 0,25 h 0,000 mm 1,7 UV-I 250 W/m 10,1 C 13,0 C 3,0 km/h (1 Bft) 0,00 %
25.05.2015 09:00 14,8 C 75 % 1014,8 hPa 0,0 l/m 0,4 km/h (0 Bft) W-NW 0,50 h 0,000 mm 1,7 UV-I 327 W/m 10,4 C 14,8 C 1,0 km/h (0 Bft) 0,00 %
25.05.2015 10:00 15,1 C 74 % 1014,5 hPa 0,0 l/m 0,4 km/h (0 Bft) W-SW 0,25 h 0,000 mm 3,0 UV-I 346 W/m 10,5 C 15,1 C 2,0 km/h (1 Bft) 0,00 %
25.05.2015 11:00 17,1 C 67 % 1013,7 hPa 0,0 l/m 0,3 km/h (0 Bft) W 0,50 h 0,000 mm 3,3 UV-I 545 W/m 10,8 C 17,1 C 2,0 km/h (1 Bft) 0,00 %
25.05.2015 12:00 18,1 C 63 % 1012,9 hPa 0,0 l/m 2,2 km/h (1 Bft) W 0,75 h 0,000 mm 4,3 UV-I 566 W/m 10,9 C 18,1 C 3,0 km/h (1 Bft) 0,00 %
25.05.2015 13:00 19,0 C 58 % 1012,3 hPa 0,0 l/m 1,4 km/h (1 Bft) NW 1,00 h 0,000 mm 4,3 UV-I 702 W/m 10,6 C 19,0 C 4,0 km/h (1 Bft) 0,00 %
25.05.2015 14:00 19,4 C 57 % 1011,4 hPa 0,0 l/m 0,1 km/h (0 Bft) N 0,50 h 0,000 mm 3,0 UV-I 526 W/m 10,6 C 19,4 C 1,0 km/h (0 Bft) 0,00 %
25.05.2015 15:00 19,4 C 54 % 1010,7 hPa 0,0 l/m 1,3 km/h (1 Bft) W-NW 0,25 h 0,000 mm 2,7 UV-I 368 W/m 9,8 C 19,4 C 3,0 km/h (1 Bft) 0,00 %
25.05.2015 16:00 20,8 C 49 % 1009,8 hPa 0,0 l/m 0,3 km/h (0 Bft) W 1,00 h 0,000 mm 2,0 UV-I 491 W/m 9,6 C 20,8 C 1,0 km/h (0 Bft) 0,00 %
25.05.2015 17:00 17,3 C 60 % 1010,2 hPa 0,0 l/m 6,0 km/h (2 Bft) W-NW 0,25 h 0,000 mm 1,7 UV-I 264 W/m 9,4 C 16,6 C 8,9 km/h (2 Bft) 0,00 %
25.05.2015 18:00 17,1 C 59 % 1009,8 hPa 0,0 l/m 0,0 km/h (0 Bft) N 0,00 h 0,000 mm 1,0 UV-I 161 W/m 9,1 C 17,1 C 0,0 km/h (0 Bft) 0,00 %
25.05.2015 19:00 17,4 C 62 % 1009,7 hPa 0,0 l/m 0,0 km/h (0 Bft) N 0,75 h 0,000 mm 1,0 UV-I 115 W/m 9,9 C 17,4 C 0,0 km/h (0 Bft) 0,00 %
25.05.2015 20:00 14,7 C 76 % 1010,3 hPa 0,0 l/m 0,0 km/h (0 Bft) S-SW 0,00 h 0,000 mm 0,0 UV-I 16 W/m 10,4 C 14,7 C 0,0 km/h (0 Bft) 0,00 %
25.05.2015 21:00 13,1 C 83 % 1010,7 hPa 0,0 l/m 0,9 km/h (0 Bft) SW 0,00 h 0,000 mm 0,0 UV-I 0 W/m 10,2 C 13,1 C 2,0 km/h (1 Bft) 0,00 %
25.05.2015 22:00 12,1 C 87 % 1011,1 hPa 0,0 l/m 0,3 km/h (0 Bft) W-SW 0,00 h 0,000 mm 0,0 UV-I 0 W/m 9,9 C 12,1 C 1,0 km/h (0 Bft) 0,00 %
25.05.2015 23:00 11,6 C 87 % 1011,0 hPa 0,0 l/m 0,2 km/h (0 Bft) N 0,00 h 0,000 mm 0,0 UV-I 0 W/m 9,5 C 11,6 C 2,0 km/h (1 Bft) 0,00 %
26.05.2015 00:00 11,1 C 87 % 1010,7 hPa 0,0 l/m 0,1 km/h (0 Bft) N 0,00 h 0,000 mm 0,0 UV-I 0 W/m 9,0 C 11,1 C 1,0 km/h (0 Bft) 0,00 %
26.05.2015 01:00 11,1 C 88 % 1010,6 hPa 0,0 l/m 0,1 km/h (0 Bft) SW 0,00 h 0,000 mm 0,0 UV-I 0 W/m 9,1 C 11,1 C 1,0 km/h (0 Bft) 0,00 %
26.05.2015 02:00 11,5 C 85 % 1010,4 hPa 0,0 l/m 1,0 km/h (0 Bft) SW 0,00 h 0,000 mm 0,0 UV-I 0 W/m 9,1 C 11,5 C 3,0 km/h (1 Bft) 0,00 %
26.05.2015 03:00 11,6 C 85 % 1010,3 hPa 0,0 l/m 1,7 km/h (1 Bft) S 0,00 h 0,000 mm 0,0 UV-I 0 W/m 9,2 C 11,6 C 4,0 km/h (1 Bft) 0,00 %
26.05.2015 04:00 11,5 C 88 % 1010,3 hPa 0,0 l/m 3,0 km/h (1 Bft) W-SW 0,00 h 0,000 mm 0,0 UV-I 0 W/m 9,6 C 11,5 C 5,9 km/h (2 Bft) 0,00 %
26.05.2015 05:00 11,5 C 89 % 1010,7 hPa 0,0 l/m 0,0 km/h (0 Bft) W-SW 0,00 h 0,000 mm 0,0 UV-I 0 W/m 9,8 C 11,5 C 0,0 km/h (0 Bft) 0,00 %
26.05.2015 06:00 11,4 C 91 % 1010,8 hPa 0,3 l/m 1,7 km/h (1 Bft) S-SO 0,00 h 0,000 mm 0,0 UV-I 20 W/m 10,0 C 11,4 C 4,0 km/h (1 Bft) 0,00 %
26.05.2015 07:00 11,6 C 91 % 1010,9 hPa 0,0 l/m 0,6 km/h (0 Bft) S-SW 0,00 h 0,000 mm 0,0 UV-I 38 W/m 10,2 C 11,6 C 2,0 km/h (1 Bft) 0,00 %
26.05.2015 08:00 11,7 C 91 % 1011,4 hPa 0,3 l/m 1,0 km/h (0 Bft) SW 0,00 h 0,000 mm 0,0 UV-I 50 W/m 10,3 C 11,7 C 3,0 km/h (1 Bft) 0,00 %
26.05.2015 09:00 11,9 C 91 % 1011,7 hPa 0,0 l/m 1,1 km/h (1 Bft) S-SW 0,00 h 0,000 mm 1,0 UV-I 96 W/m 10,5 C 11,9 C 3,0 km/h (1 Bft) 0,00 %
26.05.2015 10:00 13,9 C 83 % 1011,6 hPa 0,0 l/m 0,2 km/h (0 Bft) N 0,25 h 0,000 mm 1,3 UV-I 279 W/m 11,0 C 13,9 C 1,0 km/h (0 Bft) 0,00 %
26.05.2015 11:00 13,0 C 85 % 1012,3 hPa 0,0 l/m 1,1 km/h (1 Bft) W-SW 0,00 h 0,000 mm 1,3 UV-I 134 W/m 10,5 C 13,0 C 4,0 km/h (1 Bft) 0,00 %
26.05.2015 12:00 14,7 C 76 % 1012,3 hPa 0,0 l/m 1,1 km/h (0 Bft) S 0,00 h 0,000 mm 2,7 UV-I 332 W/m 10,4 C 14,7 C 2,0 km/h (1 Bft) 0,00 %
26.05.2015 13:00 15,9 C 70 % 1012,3 hPa 0,0 l/m 1,9 km/h (1 Bft) NW 0,25 h 0,000 mm 3,0 UV-I 345 W/m 10,5 C 15,9 C 4,0 km/h (1 Bft) 0,00 %
26.05.2015 14:00 12,6 C 87 % 1013,3 hPa 8,7 l/m 0,5 km/h (0 Bft) W-SW 0,00 h 0,000 mm 1,0 UV-I 59 W/m 10,5 C 12,6 C 2,0 km/h (1 Bft) 0,00 %
26.05.2015 15:00 12,0 C 93 % 1013,2 hPa 2,4 l/m 0,2 km/h (0 Bft) N 0,00 h 0,000 mm 1,3 UV-I 196 W/m 10,9 C 12,0 C 1,0 km/h (0 Bft) 0,00 %
26.05.2015 16:00 12,6 C 91 % 1013,6 hPa 1,8 l/m 0,0 km/h (0 Bft) N 0,00 h 0,000 mm 1,0 UV-I 69 W/m 11,1 C 12,6 C 0,0 km/h (0 Bft) 0,00 %
26.05.2015 17:00 12,7 C 91 % 1014,0 hPa 0,0 l/m 0,1 km/h (0 Bft) N 0,00 h 0,000 mm 1,0 UV-I 125 W/m 11,3 C 12,7 C 1,0 km/h (0 Bft) 0,00 %
26.05.2015 18:00 12,0 C 89 % 1014,9 hPa 0,0 l/m 0,1 km/h (0 Bft) N 0,00 h 0,000 mm 1,0 UV-I 88 W/m 10,2 C 12,0 C 1,0 km/h (0 Bft) 0,00 %
26.05.2015 19:00 11,8 C 84 % 1015,9 hPa 0,0 l/m 0,0 km/h (0 Bft) N 0,00 h 0,000 mm 0,0 UV-I 34 W/m 9,2 C 11,8 C 0,0 km/h (0 Bft) 0,00 %
26.05.2015 20:00 11,3 C 84 % 1016,6 hPa 0,0 l/m 0,0 km/h (0 Bft) N 0,00 h 0,000 mm 0,0 UV-I 7 W/m 8,7 C 11,3 C 0,0 km/h (0 Bft) 0,00 %
26.05.2015 21:00 10,5 C 92 % 1017,3 hPa 0,0 l/m 0,0 km/h (0 Bft) N 0,00 h 0,000 mm 0,0 UV-I 0 W/m 9,2 C 10,5 C 0,0 km/h (0 Bft) 0,00 %
26.05.2015 22:00 10,2 C 92 % 1017,9 hPa 0,0 l/m 0,1 km/h (0 Bft) N 0,00 h 0,000 mm 0,0 UV-I 0 W/m 9,0 C 10,2 C 1,0 km/h (0 Bft) 0,00 %
26.05.2015 23:00 10,1 C 84 % 1018,2 hPa 0,0 l/m 0,6 km/h (0 Bft) W-SW 0,00 h 0,000 mm 0,0 UV-I 0 W/m 7,6 C 10,1 C 3,0 km/h (1 Bft) 0,00 %
27.05.2015 00:00 9,8 C 80 % 1018,3 hPa 0,0 l/m 1,3 km/h (1 Bft) W-SW 0,00 h 0,000 mm 0,0 UV-I 0 W/m 6,4 C 9,8 C 4,0 km/h (1 Bft) 0,00 %
27.05.2015 01:00 9,7 C 79 % 1018,5 hPa 0,0 l/m 1,2 km/h (1 Bft) N 0,00 h 0,000 mm 0,0 UV-I 0 W/m 6,1 C 9,7 C 3,0 km/h (1 Bft) 0,00 %
27.05.2015 02:00 9,4 C 81 % 1018,6 hPa 0,0 l/m 0,5 km/h (0 Bft) SW 0,00 h 0,000 mm 0,0 UV-I 0 W/m 6,2 C 9,4 C 2,0 km/h (1 Bft) 0,00 %
27.05.2015 03:00 9,2 C 81 % 1018,9 hPa 0,0 l/m 0,7 km/h (0 Bft) N 0,00 h 0,000 mm 0,0 UV-I 0 W/m 6,1 C 9,2 C 3,0 km/h (1 Bft) 0,00 %
27.05.2015 04:00 8,5 C 82 % 1019,4 hPa 0,0 l/m 0,1 km/h (0 Bft) N 0,00 h 0,000 mm 0,0 UV-I 0 W/m 5,6 C 8,5 C 1,0 km/h (0 Bft) 0,00 %
27.05.2015 05:00 8,4 C 83 % 1019,8 hPa 0,0 l/m 0,1 km/h (0 Bft) S-SW 0,00 h 0,000 mm 0,0 UV-I 3 W/m 5,7 C 8,4 C 1,0 km/h (0 Bft) 0,00 %
27.05.2015 06:00 8,5 C 80 % 1020,4 hPa 0,0 l/m 1,3 km/h (1 Bft) W-SW 0,00 h 0,000 mm 0,0 UV-I 28 W/m 5,2 C 8,5 C 3,0 km/h (1 Bft) 0,00 %
27.05.2015 07:00 8,8 C 79 % 1020,7 hPa 0,0 l/m 0,1 km/h (0 Bft) N 0,00 h 0,000 mm 1,0 UV-I 59 W/m 5,3 C 8,8 C 1,0 km/h (0 Bft) 0,00 %
27.05.2015 08:00 9,5 C 77 % 1020,9 hPa 0,0 l/m 0,0 km/h (0 Bft) N 0,00 h 0,000 mm 1,0 UV-I 115 W/m 5,7 C 9,5 C 0,0 km/h (0 Bft) 0,00 %
27.05.2015 09:00 10,1 C 74 % 1020,9 hPa 0,0 l/m 0,4 km/h (0 Bft) SW 0,00 h 0,000 mm 1,0 UV-I 168 W/m 5,7 C 10,1 C 2,0 km/h (1 Bft) 0,00 %
27.05.2015 10:00 9,9 C 76 % 1021,1 hPa 0,0 l/m 0,1 km/h (0 Bft) N 0,00 h 0,000 mm 1,0 UV-I 117 W/m 5,9 C 9,9 C 1,0 km/h (0 Bft) 0,00 %
27.05.2015 11:00 10,9 C 72 % 1020,9 hPa 0,0 l/m 0,4 km/h (0 Bft) SW 0,00 h 0,000 mm 2,3 UV-I 244 W/m 6,0 C 10,9 C 2,0 km/h (1 Bft) 0,00 %
27.05.2015 12:00 13,0 C 63 % 1020,4 hPa 0,0 l/m 4,1 km/h (1 Bft) W-SW 0,50 h 0,000 mm 2,3 UV-I 422 W/m 6,1 C 12,7 C 7,9 km/h (2 Bft) 0,00 %
27.05.2015 13:00 12,2 C 66 % 1020,7 hPa 0,0 l/m 3,0 km/h (1 Bft) S-SO 0,00 h 0,000 mm 1,7 UV-I 247 W/m 6,0 C 12,1 C 5,9 km/h (2 Bft) 0,00 %
27.05.2015 14:00 11,6 C 71 % 1020,8 hPa 0,0 l/m 5,8 km/h (2 Bft) W-SW 0,00 h 0,000 mm 1,7 UV-I 183 W/m 6,5 C 10,5 C 8,9 km/h (2 Bft) 0,00 %
27.05.2015 15:00 13,3 C 58 % 1020,2 hPa 0,0 l/m 2,6 km/h (1 Bft) S 0,50 h 0,000 mm 2,0 UV-I 408 W/m 5,1 C 13,3 C 5,0 km/h (1 Bft) 0,00 %
27.05.2015 16:00 12,2 C 62 % 1020,5 hPa 0,0 l/m 4,1 km/h (1 Bft) W-SW 0,00 h 0,000 mm 1,3 UV-I 219 W/m 5,1 C 11,8 C 6,9 km/h (2 Bft) 0,00 %
27.05.2015 17:00 13,3 C 60 % 1019,9 hPa 0,0 l/m 7,1 km/h (2 Bft) W-SW 0,25 h 0,000 mm 1,7 UV-I 455 W/m 5,7 C 12,4 C 9,9 km/h (2 Bft) 0,00 %
27.05.2015 18:00 13,6 C 53 % 1019,7 hPa 0,0 l/m 3,6 km/h (1 Bft) W-SW 0,50 h 0,000 mm 1,0 UV-I 187 W/m 4,3 C 13,5 C 6,9 km/h (2 Bft) 0,00 %
27.05.2015 19:00 13,1 C 56 % 1019,7 hPa 0,0 l/m 1,8 km/h (1 Bft) W-SW 0,75 h 0,000 mm 1,0 UV-I 109 W/m 4,3 C 13,1 C 4,0 km/h (1 Bft) 0,00 %
27.05.2015 20:00 11,2 C 60 % 1020,3 hPa 0,0 l/m 1,5 km/h (1 Bft) W-SW 0,00 h 0,000 mm 0,0 UV-I 14 W/m 3,7 C 11,2 C 3,0 km/h (1 Bft) 0,00 %
27.05.2015 21:00 10,4 C 64 % 1021,1 hPa 0,0 l/m 1,6 km/h (1 Bft) W-SW 0,00 h 0,000 mm 0,0 UV-I 0 W/m 3,8 C 10,4 C 3,0 km/h (1 Bft) 0,00 %
27.05.2015 22:00 10,1 C 65 % 1021,4 hPa 0,0 l/m 0,1 km/h (0 Bft) N 0,00 h 0,000 mm 0,0 UV-I 0 W/m 3,9 C 10,1 C 1,0 km/h (0 Bft) 0,00 %
27.05.2015 23:00 9,5 C 70 % 1021,2 hPa 0,0 l/m 0,0 km/h (0 Bft) N 0,00 h 0,000 mm 0,0 UV-I 0 W/m 4,4 C 9,5 C 0,0 km/h (0 Bft) 0,00 %
28.05.2015 00:00 8,9 C 76 % 1021,2 hPa 0,0 l/m 0,0 km/h (0 Bft) N 0,00 h 0,000 mm 0,0 UV-I 0 W/m 4,9 C 8,9 C 0,0 km/h (0 Bft) 0,00 %
28.05.2015 01:00 8,7 C 77 % 1021,2 hPa 0,0 l/m 0,0 km/h (0 Bft) N 0,00 h 0,000 mm 0,0 UV-I 0 W/m 4,9 C 8,7 C 0,0 km/h (0 Bft) 0,00 %
28.05.2015 02:00 8,5 C 79 % 1020,8 hPa 0,0 l/m 0,0 km/h (0 Bft) N 0,00 h 0,000 mm 0,0 UV-I 0 W/m 5,0 C 8,5 C 0,0 km/h (0 Bft) 0,00 %
28.05.2015 03:00 8,4 C 81 % 1020,4 hPa 0,0 l/m 0,0 km/h (0 Bft) N 0,00 h 0,000 mm 0,0 UV-I 0 W/m 5,2 C 8,4 C 0,0 km/h (0 Bft) 0,00 %
28.05.2015 04:00 7,9 C 85 % 1020,2 hPa 0,0 l/m 0,0 km/h (0 Bft) N 0,00 h 0,000 mm 0,0 UV-I 0 W/m 5,5 C 7,9 C 0,0 km/h (0 Bft) 0,00 %
28.05.2015 05:00 7,3 C 88 % 1020,2 hPa 0,0 l/m 0,0 km/h (0 Bft) N 0,00 h 0,000 mm 0,0 UV-I 6 W/m 5,5 C 7,3 C 0,0 km/h (0 Bft) 0,00 %
28.05.2015 06:00 8,3 C 85 % 1020,4 hPa 0,0 l/m 0,0 km/h (0 Bft) N 0,00 h 0,000 mm 1,0 UV-I 57 W/m 5,9 C 8,3 C 0,0 km/h (0 Bft) 0,00 %
28.05.2015 07:00 9,8 C 78 % 1020,3 hPa 0,0 l/m 0,0 km/h (0 Bft) N 0,00 h 0,000 mm 1,0 UV-I 123 W/m 6,1 C 9,8 C 0,0 km/h (0 Bft) 0,00 %
28.05.2015 08:00 11,2 C 68 % 1020,1 hPa 0,0 l/m 0,0 km/h (0 Bft) N 0,00 h 0,000 mm 1,7 UV-I 223 W/m 5,5 C 11,2 C 0,0 km/h (0 Bft) 0,00 %
28.05.2015 09:00 13,9 C 58 % 1019,1 hPa 0,0 l/m 0,0 km/h (0 Bft) N 1,00 h 0,000 mm 2,7 UV-I 481 W/m 5,7 C 13,9 C 0,0 km/h (0 Bft) 0,00 %
28.05.2015 10:00 15,3 C 55 % 1018,6 hPa 0,0 l/m 0,2 km/h (0 Bft) N 1,00 h 0,000 mm 4,0 UV-I 613 W/m 6,2 C 15,3 C 1,0 km/h (0 Bft) 0,00 %
28.05.2015 11:00 16,4 C 52 % 1018,0 hPa 0,0 l/m 0,5 km/h (0 Bft) SO 1,00 h 0,000 mm 4,7 UV-I 623 W/m 6,4 C 16,4 C 2,0 km/h (1 Bft) 0,00 %
28.05.2015 12:00 17,3 C 49 % 1017,6 hPa 0,0 l/m 0,8 km/h (0 Bft) N-NO 0,75 h 0,000 mm 6,0 UV-I 777 W/m 6,4 C 17,3 C 2,0 km/h (1 Bft) 0,00 %
28.05.2015 13:00 18,0 C 47 % 1016,7 hPa 0,0 l/m 2,3 km/h (1 Bft) S 1,00 h 0,000 mm 3,7 UV-I 880 W/m 6,6 C 18,0 C 4,0 km/h (1 Bft) 0,00 %
28.05.2015 14:00 19,5 C 43 % 1015,8 hPa 0,0 l/m 0,7 km/h (0 Bft) W-SW 0,75 h 0,000 mm 5,0 UV-I 628 W/m 6,6 C 19,5 C 1,0 km/h (0 Bft) 0,00 %
28.05.2015 15:00 20,7 C 38 % 1015,1 hPa 0,0 l/m 0,4 km/h (0 Bft) W-SW 1,00 h 0,000 mm 4,0 UV-I 841 W/m 5,9 C 20,7 C 3,0 km/h (1 Bft) 0,00 %
28.05.2015 16:00 20,2 C 40 % 1014,6 hPa 0,0 l/m 2,1 km/h (1 Bft) N 1,00 h 0,000 mm 2,0 UV-I 795 W/m 6,2 C 20,1 C 5,0 km/h (1 Bft) 0,00 %
28.05.2015 17:00 20,9 C 37 % 1013,8 hPa 0,0 l/m 0,0 km/h (0 Bft) NW 1,00 h 0,000 mm 1,3 UV-I 744 W/m 5,5 C 20,9 C 0,0 km/h (0 Bft) 0,00 %
28.05.2015 18:00 20,8 C 39 % 1013,2 hPa 0,0 l/m 0,8 km/h (0 Bft) N 1,00 h 0,000 mm 1,0 UV-I 623 W/m 6,2 C 20,8 C 2,0 km/h (1 Bft) 0,00 %
28.05.2015 19:00 19,2 C 45 % 1013,3 hPa 0,0 l/m 0,0 km/h (0 Bft) N 1,00 h 0,000 mm 1,0 UV-I 206 W/m 6,8 C 19,2 C 0,0 km/h (0 Bft) 0,00 %
28.05.2015 20:00 16,1 C 54 % 1013,6 hPa 0,0 l/m 0,0 km/h (0 Bft) N 0,25 h 0,000 mm 0,0 UV-I 14 W/m 6,8 C 16,1 C 0,0 km/h (0 Bft) 0,00 %
28.05.2015 21:00 13,0 C 72 % 1014,2 hPa 0,0 l/m 0,0 km/h (0 Bft) N 0,00 h 0,000 mm 0,0 UV-I 0 W/m 8,0 C 13,0 C 0,0 km/h (0 Bft) 0,00 %
28.05.2015 22:00 11,8 C 76 % 1014,5 hPa 0,0 l/m 0,0 km/h (0 Bft) N 0,00 h 0,000 mm 0,0 UV-I 0 W/m 7,7 C 11,8 C 0,0 km/h (0 Bft) 0,00 %
28.05.2015 23:00 11,1 C 81 % 1014,9 hPa 0,0 l/m 0,0 km/h (0 Bft) N 0,00 h 0,000 mm 0,0 UV-I 0 W/m 8,0 C 11,1 C 0,0 km/h (0 Bft) 0,00 %
29.05.2015 00:00 10,9 C 80 % 1015,0 hPa 0,0 l/m 0,0 km/h (0 Bft) N 0,00 h 0,000 mm 0,0 UV-I 0 W/m 7,5 C 10,9 C 0,0 km/h (0 Bft) 0,00 %
29.05.2015 01:00 10,3 C 80 % 1014,9 hPa 0,0 l/m 0,0 km/h (0 Bft) N 0,00 h 0,000 mm 0,0 UV-I 0 W/m 7,0 C 10,3 C 0,0 km/h (0 Bft) 0,00 %
29.05.2015 02:00 9,5 C 83 % 1014,9 hPa 0,0 l/m 0,0 km/h (0 Bft) N 0,00 h 0,000 mm 0,0 UV-I 0 W/m 6,7 C 9,5 C 0,0 km/h (0 Bft) 0,00 %
29.05.2015 03:00 9,0 C 83 % 1014,5 hPa 0,0 l/m 0,0 km/h (0 Bft) N 0,00 h 0,000 mm 0,0 UV-I 0 W/m 6,3 C 9,0 C 0,0 km/h (0 Bft) 0,00 %
29.05.2015 04:00 8,5 C 86 % 1014,5 hPa 0,0 l/m 0,0 km/h (0 Bft) N 0,00 h 0,000 mm 0,0 UV-I 0 W/m 6,3 C 8,5 C 0,0 km/h (0 Bft) 0,00 %
29.05.2015 05:00 8,3 C 88 % 1014,7 hPa 0,0 l/m 0,0 km/h (0 Bft) N 0,00 h 0,000 mm 0,0 UV-I 12 W/m 6,4 C 8,3 C 0,0 km/h (0 Bft) 0,00 %
29.05.2015 06:00 9,1 C 87 % 1014,8 hPa 0,0 l/m 0,1 km/h (0 Bft) N 0,00 h 0,000 mm 1,0 UV-I 62 W/m 7,0 C 9,1 C 1,0 km/h (0 Bft) 0,00 %
29.05.2015 07:00 13,8 C 67 % 1014,3 hPa 0,0 l/m 0,0 km/h (0 Bft) SW 1,00 h 0,000 mm 1,3 UV-I 346 W/m 7,7 C 13,8 C 0,0 km/h (0 Bft) 0,00 %
29.05.2015 08:00 16,2 C 59 % 1014,1 hPa 0,0 l/m 0,5 km/h (0 Bft) N 1,00 h 0,000 mm 2,0 UV-I 437 W/m 8,0 C 16,2 C 2,0 km/h (1 Bft) 0,00 %
29.05.2015 09:00 17,9 C 54 % 1013,7 hPa 0,0 l/m 0,4 km/h (0 Bft) O 1,00 h 0,000 mm 3,0 UV-I 562 W/m 8,5 C 17,9 C 1,0 km/h (0 Bft) 0,00 %
29.05.2015 10:00 19,5 C 47 % 1013,1 hPa 0,0 l/m 1,6 km/h (1 Bft) O-NO 1,00 h 0,000 mm 4,0 UV-I 661 W/m 7,9 C 19,5 C 3,0 km/h (1 Bft) 0,00 %
29.05.2015 11:00 20,5 C 46 % 1012,5 hPa 0,0 l/m 0,6 km/h (0 Bft) O-NO 1,00 h 0,000 mm 5,3 UV-I 743 W/m 8,4 C 20,5 C 3,0 km/h (1 Bft) 0,00 %
29.05.2015 12:00 21,7 C 43 % 1011,5 hPa 0,0 l/m 2,1 km/h (1 Bft) NO 1,00 h 0,000 mm 6,0 UV-I 785 W/m 8,5 C 21,7 C 4,0 km/h (1 Bft) 0,00 %
29.05.2015 13:00 23,1 C 38 % 1010,3 hPa 0,0 l/m 0,0 km/h (0 Bft) N 1,00 h 0,000 mm 5,7 UV-I 849 W/m 7,9 C 23,1 C 0,0 km/h (0 Bft) 0,00 %
29.05.2015 14:00 24,0 C 33 % 1009,3 hPa 0,0 l/m 0,1 km/h (0 Bft) N 0,75 h 0,000 mm 3,3 UV-I 721 W/m 6,6 C 24,0 C 1,0 km/h (0 Bft) 0,00 %
29.05.2015 15:00 23,7 C 36 % 1008,6 hPa 0,0 l/m 2,5 km/h (1 Bft) O-SO 0,75 h 0,000 mm 3,7 UV-I 646 W/m 7,5 C 23,7 C 5,0 km/h (1 Bft) 0,00 %
29.05.2015 16:00 23,4 C 39 % 1007,9 hPa 0,0 l/m 1,4 km/h (1 Bft) O-SO 0,50 h 0,000 mm 2,0 UV-I 536 W/m 8,4 C 23,4 C 4,0 km/h (1 Bft) 0,00 %
29.05.2015 17:00 23,3 C 39 % 1007,1 hPa 0,0 l/m 6,2 km/h (2 Bft) O 1,00 h 0,000 mm 1,0 UV-I 709 W/m 8,6 C 23,0 C 8,9 km/h (2 Bft) 0,00 %
29.05.2015 18:00 22,7 C 40 % 1006,4 hPa 0,0 l/m 3,0 km/h (1 Bft) O 1,00 h 0,000 mm 1,0 UV-I 588 W/m 8,2 C 22,7 C 6,9 km/h (2 Bft) 0,00 %
29.05.2015 19:00 21,2 C 48 % 1006,3 hPa 0,0 l/m 2,1 km/h (1 Bft) O-SO 1,00 h 0,000 mm 1,0 UV-I 276 W/m 9,5 C 21,2 C 3,0 km/h (1 Bft) 0,00 %
29.05.2015 20:00 19,5 C 53 % 1006,5 hPa 0,0 l/m 0,2 km/h (0 Bft) O 0,75 h 0,000 mm 0,0 UV-I 78 W/m 9,6 C 19,5 C 1,0 km/h (0 Bft) 0,00 %
29.05.2015 21:00 17,7 C 56 % 1006,8 hPa 0,0 l/m 0,4 km/h (0 Bft) N 0,00 h 0,000 mm 0,0 UV-I 0 W/m 8,9 C 17,7 C 1,0 km/h (0 Bft) 0,00 %
29.05.2015 22:00 15,8 C 64 % 1007,9 hPa 0,0 l/m 0,3 km/h (0 Bft) N 0,00 h 0,000 mm 0,0 UV-I 0 W/m 8,9 C 15,8 C 1,0 km/h (0 Bft) 0,00 %
29.05.2015 23:00 15,7 C 64 % 1009,2 hPa 0,0 l/m 0,0 km/h (0 Bft) N 0,00 h 0,000 mm 0,0 UV-I 0 W/m 8,8 C 15,7 C 0,0 km/h (0 Bft) 0,00 %
30.05.2015 00:00 14,8 C 75 % 1010,2 hPa 0,0 l/m 1,0 km/h (0 Bft) O-SO 0,00 h 0,000 mm 0,0 UV-I 0 W/m 10,2 C 14,8 C 3,0 km/h (1 Bft) 0,00 %
30.05.2015 01:00 13,4 C 89 % 1011,3 hPa 1,8 l/m 0,0 km/h (0 Bft) N 0,00 h 0,000 mm 0,0 UV-I 0 W/m 11,5 C 13,4 C 0,0 km/h (0 Bft) 0,00 %
30.05.2015 02:00 13,1 C 89 % 1011,2 hPa 0,0 l/m 0,6 km/h (0 Bft) S 0,00 h 0,000 mm 0,0 UV-I 0 W/m 11,3 C 13,1 C 4,0 km/h (1 Bft) 0,00 %
30.05.2015 03:00 13,0 C 90 % 1011,6 hPa 0,0 l/m 1,8 km/h (1 Bft) O-SO 0,00 h 0,000 mm 0,0 UV-I 0 W/m 11,4 C 12,9 C 3,0 km/h (1 Bft) 0,00 %
30.05.2015 04:00 12,8 C 91 % 1011,3 hPa 0,0 l/m 0,0 km/h (0 Bft) N 0,00 h 0,000 mm 0,0 UV-I 0 W/m 11,4 C 12,8 C 0,0 km/h (0 Bft) 0,00 %
30.05.2015 05:00 12,3 C 94 % 1011,9 hPa 0,0 l/m 0,0 km/h (0 Bft) N 0,00 h 0,000 mm 0,0 UV-I 14 W/m 11,4 C 12,3 C 0,0 km/h (0 Bft) 0,00 %
30.05.2015 06:00 12,8 C 94 % 1012,4 hPa 0,0 l/m 0,1 km/h (0 Bft) N 0,00 h 0,000 mm 1,0 UV-I 59 W/m 11,8 C 12,8 C 1,0 km/h (0 Bft) 0,00 %
30.05.2015 07:00 14,4 C 86 % 1012,5 hPa 0,0 l/m 0,8 km/h (0 Bft) W-SW 0,00 h 0,000 mm 1,0 UV-I 108 W/m 12,1 C 14,4 C 2,0 km/h (1 Bft) 0,00 %
30.05.2015 08:00 17,7 C 70 % 1012,3 hPa 0,0 l/m 0,1 km/h (0 Bft) N 0,75 h 0,000 mm 1,7 UV-I 306 W/m 12,2 C 17,7 C 1,0 km/h (0 Bft) 0,00 %
30.05.2015 09:00 18,5 C 66 % 1012,6 hPa 0,0 l/m 0,8 km/h (0 Bft) SW 0,00 h 0,000 mm 2,3 UV-I 302 W/m 12,0 C 18,5 C 1,0 km/h (0 Bft) 0,00 %
30.05.2015 10:00 20,2 C 61 % 1012,2 hPa 0,0 l/m 0,7 km/h (0 Bft) SW 0,25 h 0,000 mm 3,0 UV-I 387 W/m 12,3 C 20,2 C 2,0 km/h (1 Bft) 0,00 %
30.05.2015 11:00 20,6 C 51 % 1012,2 hPa 0,0 l/m 2,3 km/h (1 Bft) N-NO 0,50 h 0,000 mm 3,7 UV-I 521 W/m 10,0 C 20,6 C 4,0 km/h (1 Bft) 0,00 %
30.05.2015 12:00 21,4 C 49 % 1011,9 hPa 0,0 l/m 1,4 km/h (1 Bft) S-SW 0,50 h 0,000 mm 2,3 UV-I 364 W/m 10,3 C 21,4 C 3,0 km/h (1 Bft) 0,00 %
30.05.2015 13:00 21,0 C 48 % 1011,9 hPa 0,0 l/m 2,9 km/h (1 Bft) S-SW 0,00 h 0,000 mm 2,3 UV-I 274 W/m 9,6 C 21,0 C 5,9 km/h (2 Bft) 0,00 %
30.05.2015 14:00 22,0 C 46 % 1011,5 hPa 0,0 l/m 1,5 km/h (1 Bft) W-SW 0,25 h 0,000 mm 2,3 UV-I 346 W/m 9,6 C 22,0 C 3,0 km/h (1 Bft) 0,00 %
30.05.2015 15:00 20,1 C 57 % 1012,5 hPa 0,0 l/m 1,8 km/h (1 Bft) SO 0,00 h 0,000 mm 1,0 UV-I 175 W/m 11,3 C 20,1 C 3,0 km/h (1 Bft) 0,00 %
30.05.2015 16:00 19,5 C 58 % 1012,7 hPa 0,0 l/m 1,6 km/h (1 Bft) W-SW 0,00 h 0,000 mm 1,0 UV-I 130 W/m 10,9 C 19,5 C 3,0 km/h (1 Bft) 0,00 %
30.05.2015 17:00 19,0 C 62 % 1012,9 hPa 0,0 l/m 0,0 km/h (0 Bft) N 0,00 h 0,000 mm 1,0 UV-I 110 W/m 11,5 C 19,0 C 0,0 km/h (0 Bft) 0,00 %
30.05.2015 18:00 17,1 C 77 % 1013,9 hPa 0,9 l/m 1,1 km/h (0 Bft) SW 0,00 h 0,000 mm 1,0 UV-I 80 W/m 12,9 C 17,1 C 2,0 km/h (1 Bft) 0,00 %
30.05.2015 19:00 15,9 C 76 % 1014,8 hPa 0,0 l/m 0,0 km/h (0 Bft) N 0,00 h 0,000 mm 0,0 UV-I 46 W/m 11,5 C 15,9 C 0,0 km/h (0 Bft) 0,00 %
30.05.2015 20:00 15,0 C 71 % 1015,7 hPa 0,0 l/m 0,0 km/h (0 Bft) N 0,00 h 0,000 mm 0,0 UV-I 0 W/m 9,7 C 15,0 C 0,0 km/h (0 Bft) 0,00 %
30.05.2015 21:00 14,4 C 74 % 1016,7 hPa 0,0 l/m 0,0 km/h (0 Bft) N 0,00 h 0,000 mm 0,0 UV-I 0 W/m 9,7 C 14,4 C 0,0 km/h (0 Bft) 0,00 %
30.05.2015 22:00 13,7 C 78 % 1017,3 hPa 0,0 l/m 0,0 km/h (0 Bft) N 0,00 h 0,000 mm 0,0 UV-I 0 W/m 9,9 C 13,7 C 0,0 km/h (0 Bft) 0,00 %
30.05.2015 23:00 12,9 C 81 % 1017,8 hPa 0,0 l/m 0,0 km/h (0 Bft) N 0,00 h 0,000 mm 0,0 UV-I 0 W/m 9,6 C 12,9 C 0,0 km/h (0 Bft) 0,00 %
31.05.2015 00:00 12,5 C 84 % 1018,0 hPa 0,0 l/m 0,0 km/h (0 Bft) N 0,00 h 0,000 mm 0,0 UV-I 0 W/m 9,9 C 12,5 C 0,0 km/h (0 Bft) 0,00 %
31.05.2015 01:00 12,6 C 85 % 1018,1 hPa 0,0 l/m 0,0 km/h (0 Bft) N 0,00 h 0,000 mm 0,0 UV-I 0 W/m 10,1 C 12,6 C 0,0 km/h (0 Bft) 0,00 %
31.05.2015 02:00 11,6 C 89 % 1018,3 hPa 0,0 l/m 0,0 km/h (0 Bft) N 0,00 h 0,000 mm 0,0 UV-I 0 W/m 9,7 C 11,6 C 0,0 km/h (0 Bft) 0,00 %
31.05.2015 03:00 11,4 C 92 % 1018,1 hPa 0,0 l/m 0,0 km/h (0 Bft) N 0,00 h 0,000 mm 0,0 UV-I 0 W/m 10,1 C 11,4 C 0,0 km/h (0 Bft) 0,00 %
31.05.2015 04:00 11,3 C 94 % 1017,9 hPa 0,0 l/m 0,0 km/h (0 Bft) N 0,00 h 0,000 mm 0,0 UV-I 0 W/m 10,3 C 11,3 C 0,0 km/h (0 Bft) 0,00 %
31.05.2015 05:00 11,3 C 94 % 1018,1 hPa 0,0 l/m 0,0 km/h (0 Bft) N 0,00 h 0,000 mm 0,0 UV-I 18 W/m 10,4 C 11,3 C 0,0 km/h (0 Bft) 0,00 %
31.05.2015 06:00 12,9 C 90 % 1017,7 hPa 0,0 l/m 0,0 km/h (0 Bft) N 0,25 h 0,000 mm 1,0 UV-I 96 W/m 11,2 C 12,9 C 0,0 km/h (0 Bft) 0,00 %
31.05.2015 07:00 14,8 C 79 % 1017,8 hPa 0,0 l/m 1,5 km/h (1 Bft) O 1,00 h 0,000 mm 1,3 UV-I 366 W/m 11,2 C 14,8 C 2,0 km/h (1 Bft) 0,00 %
31.05.2015 08:00 16,6 C 66 % 1017,6 hPa 0,0 l/m 2,0 km/h (1 Bft) O 1,00 h 0,000 mm 2,0 UV-I 462 W/m 10,1 C 16,6 C 4,0 km/h (1 Bft) 0,00 %
31.05.2015 09:00 17,9 C 60 % 1017,2 hPa 0,0 l/m 2,8 km/h (1 Bft) O 1,00 h 0,000 mm 3,0 UV-I 565 W/m 10,1 C 17,9 C 5,0 km/h (1 Bft) 0,00 %
31.05.2015 10:00 19,0 C 54 % 1016,8 hPa 0,0 l/m 4,4 km/h (1 Bft) O 1,00 h 0,000 mm 4,0 UV-I 674 W/m 9,6 C 18,5 C 6,9 km/h (2 Bft) 0,00 %
31.05.2015 11:00 20,3 C 54 % 1016,3 hPa 0,0 l/m 2,8 km/h (1 Bft) NO 1,00 h 0,000 mm 5,7 UV-I 761 W/m 10,7 C 20,3 C 4,0 km/h (1 Bft) 0,00 %
31.05.2015 12:00 21,7 C 48 % 1015,7 hPa 0,0 l/m 4,3 km/h (1 Bft) O-SO 1,00 h 0,000 mm 6,0 UV-I 834 W/m 10,1 C 21,5 C 6,0 km/h (2 Bft) 0,00 %
31.05.2015 13:00 22,5 C 46 % 1015,1 hPa 0,0 l/m 3,2 km/h (1 Bft) NO 1,00 h 0,000 mm 5,0 UV-I 818 W/m 10,1 C 22,5 C 5,9 km/h (2 Bft) 0,00 %
31.05.2015 14:00 22,9 C 43 % 1014,3 hPa 0,0 l/m 4,5 km/h (1 Bft) O 1,00 h 0,000 mm 4,3 UV-I 727 W/m 9,7 C 22,9 C 5,9 km/h (2 Bft) 0,00 %
31.05.2015 15:00 23,2 C 42 % 1013,7 hPa 0,0 l/m 3,2 km/h (1 Bft) O-SO 1,00 h 0,000 mm 4,0 UV-I 802 W/m 9,5 C 23,2 C 5,9 km/h (2 Bft) 0,00 %
31.05.2015 16:00 22,9 C 43 % 1013,1 hPa 0,0 l/m 5,4 km/h (1 Bft) O 1,00 h 0,000 mm 2,0 UV-I 698 W/m 9,5 C 22,7 C 7,9 km/h (2 Bft) 0,00 %
31.05.2015 17:00 22,4 C 44 % 1012,7 hPa 0,0 l/m 6,1 km/h (2 Bft) O-SO 1,00 h 0,000 mm 1,3 UV-I 500 W/m 9,5 C 22,1 C 8,9 km/h (2 Bft) 0,00 %
31.05.2015 18:00 21,5 C 48 % 1012,3 hPa 0,0 l/m 1,4 km/h (1 Bft) O-NO 0,25 h 0,000 mm 1,0 UV-I 183 W/m 9,9 C 21,5 C 3,0 km/h (1 Bft) 0,00 %
31.05.2015 19:00 20,7 C 54 % 1012,3 hPa 0,0 l/m 0,0 km/h (0 Bft) N 0,00 h 0,000 mm 1,0 UV-I 82 W/m 10,9 C 20,7 C 0,0 km/h (0 Bft) 0,00 %
31.05.2015 20:00 19,4 C 61 % 1012,6 hPa 0,0 l/m 0,0 km/h (0 Bft) N 0,00 h 0,000 mm 0,0 UV-I 14 W/m 11,7 C 19,4 C 0,0 km/h (0 Bft) 0,00 %
31.05.2015 21:00 18,2 C 67 % 1013,3 hPa 0,0 l/m 0,0 km/h (0 Bft) N 0,00 h 0,000 mm 0,0 UV-I 0 W/m 11,9 C 18,2 C 0,0 km/h (0 Bft) 0,00 %
31.05.2015 22:00 17,6 C 70 % 1014,5 hPa 1,2 l/m 0,7 km/h (0 Bft) W-SW 0,00 h 0,000 mm 0,0 UV-I 0 W/m 12,0 C 17,6 C 2,0 km/h (1 Bft) 0,00 %
31.05.2015 23:00 14,9 C 84 % 1015,1 hPa 0,6 l/m 0,5 km/h (0 Bft) N 0,00 h 0,000 mm 0,0 UV-I 0 W/m 12,2 C 14,9 C 1,3 km/h (1 Bft) 0,00 %
Min-Datum _ 28.05.15 29.05.15 29.05.15 - 25.05.15 - - - - - 27.05.15 28.05.15 25.05.15 25.05.15
_ Min-Zeit 05:30 14:00 19:00 - 00:00 - - - - - 20:45 05:30 00:00 00:00
Minimum _ 7,2 C 30 % 1006,1 hPa - 0,0 km/h (0 Bft) - - - - - 3,4 C 7,2 C 0,0 km/h (0 Bft) 0,00 %
Max-Datum _ 29.05.15 25.05.15 27.05.15 26.05.15 27.05.15 - 25.05.15 25.05.15 26.05.15 29.05.15 30.05.15 29.05.15 27.05.15 25.05.15
_ Max-Zeit 14:00 00:15 22:30 14:15 14:45 - 08:45 00:00 13:30 16:00 18:30 14:00 14:45 00:00
Maximum _ 25,0 C 97 % 1021,5 hPa 8,7 l/m 15,8 km/h
W-SW (3 Bft)
- 0,25 h 0,000 mm 6,0 UV-I 1053 W/m 13,6 C 25,0 C 19,8 km/h
W-SW (3 Bft)
0,00 %
Durchschnitt _ 14,5 C 71 % 1014,8 hPa #18,0 l/m 1,0 km/h (0 Bft) W-SW #46:15 h #0,000 mm 2,3 UV-I 329 W/m 8,7 C 14,5 C 2,0 km/h (1 Bft) 0,00 %